createdAt,value
2018-08-24T00:00:18.621Z,59.10
2018-08-24T00:00:52.713Z,58.40
2018-08-24T00:01:26.250Z,58.40
2018-08-24T00:01:59.790Z,58.50
2018-08-24T00:02:33.297Z,57.90
2018-08-24T00:03:06.860Z,57.70
2018-08-24T00:03:40.379Z,58.10
2018-08-24T00:04:15.502Z,58.10
2018-08-24T00:04:49.027Z,57.80
2018-08-24T00:05:22.555Z,58.20
2018-08-24T00:05:56.012Z,58.40
2018-08-24T00:06:29.537Z,58.60
2018-08-24T00:07:03.080Z,58.30
2018-08-24T00:07:36.592Z,58.10
2018-08-24T00:08:10.075Z,58.30
2018-08-24T00:08:43.600Z,58.60
2018-08-24T00:09:21.352Z,58.90
2018-08-24T00:09:54.856Z,58.80
2018-08-24T00:10:28.424Z,58.70
2018-08-24T00:11:01.932Z,58.60
2018-08-24T00:11:35.378Z,58.80
2018-08-24T00:12:08.931Z,59.00
2018-08-24T00:12:42.388Z,60.10
2018-08-24T00:13:15.869Z,59.70
2018-08-24T00:13:49.366Z,59.90
2018-08-24T00:14:22.846Z,60.10
2018-08-24T00:14:56.417Z,60.60
2018-08-24T00:15:30.451Z,60.70
2018-08-24T00:16:04.048Z,61.30
2018-08-24T00:16:38.089Z,61.30
2018-08-24T00:17:16.892Z,60.80
2018-08-24T00:17:50.327Z,61.10
2018-08-24T00:18:23.782Z,61.70
2018-08-24T00:18:57.247Z,61.70
2018-08-24T00:19:30.670Z,61.50
2018-08-24T00:20:04.252Z,61.40
2018-08-24T00:20:37.755Z,61.60
2018-08-24T00:21:11.881Z,61.70
2018-08-24T00:21:46.350Z,61.80
2018-08-24T00:22:19.815Z,62.60
2018-08-24T00:22:53.324Z,63.10
2018-08-24T00:23:26.838Z,62.80
2018-08-24T00:24:00.367Z,62.20
2018-08-24T00:24:33.820Z,62.00
2018-08-24T00:25:07.286Z,62.00
2018-08-24T00:25:40.775Z,62.60
2018-08-24T00:26:14.305Z,63.50
2018-08-24T00:26:48.434Z,63.90
2018-08-24T00:27:21.889Z,64.50
2018-08-24T00:27:55.337Z,64.50
2018-08-24T00:28:28.778Z,64.70
2018-08-24T00:29:02.291Z,64.70
2018-08-24T00:29:36.487Z,65.00
2018-08-24T00:30:10.113Z,65.50
2018-08-24T00:30:43.850Z,65.50
2018-08-24T00:31:17.410Z,65.40
2018-08-24T00:31:51.537Z,65.30
2018-08-24T00:32:25.059Z,65.40
2018-08-24T00:32:58.623Z,65.50
2018-08-24T00:33:32.784Z,66.10
2018-08-24T00:34:06.507Z,66.00
2018-08-24T00:34:41.163Z,65.70
2018-08-24T00:35:14.764Z,65.50
2018-08-24T00:35:52.470Z,65.30
2018-08-24T00:36:26.918Z,65.20
2018-08-24T00:37:00.465Z,65.80
2018-08-24T00:37:33.974Z,65.90
2018-08-24T00:38:07.951Z,66.30
2018-08-24T00:38:41.537Z,66.10
2018-08-24T00:39:15.090Z,66.30
2018-08-24T00:39:48.586Z,66.80
2018-08-24T00:40:22.110Z,66.90
2018-08-24T00:40:57.144Z,66.80
2018-08-24T00:41:30.693Z,66.30
2018-08-24T00:42:04.246Z,66.10
2018-08-24T00:42:37.835Z,66.40
2018-08-24T00:43:11.330Z,66.20
2018-08-24T00:43:45.045Z,65.90
2018-08-24T00:44:18.656Z,65.80
2018-08-24T00:44:52.198Z,65.70
2018-08-24T00:45:25.675Z,65.80
2018-08-24T00:45:59.147Z,65.70
2018-08-24T00:46:32.656Z,65.90
2018-08-24T00:47:06.194Z,66.10
2018-08-24T00:47:40.411Z,67.00
2018-08-24T00:48:13.922Z,65.70
2018-08-24T00:48:47.818Z,65.90
2018-08-24T00:49:21.307Z,66.20
2018-08-24T00:49:54.750Z,67.10
2018-08-24T00:50:28.196Z,66.30
2018-08-24T00:51:01.637Z,65.80
2018-08-24T00:51:35.190Z,65.40
2018-08-24T00:52:09.055Z,65.80
2018-08-24T00:52:42.543Z,66.30
2018-08-24T00:53:16.980Z,66.40
2018-08-24T00:53:50.566Z,66.30
2018-08-24T00:54:24.071Z,66.20
2018-08-24T00:54:57.651Z,66.00
2018-08-24T00:55:31.141Z,66.10
2018-08-24T00:56:04.707Z,66.40
2018-08-24T00:56:38.456Z,66.80
2018-08-24T00:57:11.951Z,66.90
2018-08-24T00:57:45.392Z,67.20
2018-08-24T00:58:18.976Z,67.40
2018-08-24T00:58:52.538Z,66.70
2018-08-24T00:59:26.194Z,66.40
2018-08-24T00:59:59.676Z,66.20
2018-08-24T01:00:38.427Z,66.70
2018-08-24T01:01:11.988Z,66.70
2018-08-24T01:01:45.497Z,67.20
2018-08-24T01:02:18.970Z,66.80
2018-08-24T01:02:52.489Z,66.80
2018-08-24T01:03:25.991Z,67.00
2018-08-24T01:04:00.066Z,66.50
2018-08-24T01:04:33.508Z,66.20
2018-08-24T01:05:07.116Z,66.10
2018-08-24T01:05:40.918Z,65.70
2018-08-24T01:06:14.452Z,65.00
2018-08-24T01:06:47.931Z,65.00
2018-08-24T01:07:21.408Z,65.00
2018-08-24T01:08:00.155Z,65.00
2018-08-24T01:08:34.364Z,64.70
2018-08-24T01:09:09.327Z,64.40
2018-08-24T01:09:43.198Z,64.20
2018-08-24T01:10:25.895Z,64.20
2018-08-24T01:10:59.388Z,64.00
2018-08-24T01:11:38.200Z,64.30
2018-08-24T01:12:13.442Z,64.40
2018-08-24T01:12:47.004Z,64.30
2018-08-24T01:13:20.454Z,64.60
2018-08-24T01:13:54.191Z,64.30
2018-08-24T01:14:27.674Z,64.30
2018-08-24T01:15:05.427Z,64.00
2018-08-24T01:15:49.123Z,64.20
2018-08-24T01:16:27.987Z,64.20
2018-08-24T01:17:06.973Z,64.50
2018-08-24T01:17:46.605Z,65.00
2018-08-24T01:18:22.257Z,65.30
2018-08-24T01:18:56.411Z,65.70
2018-08-24T01:19:29.967Z,65.70
2018-08-24T01:20:03.597Z,65.10
2018-08-24T01:20:37.202Z,65.80
2018-08-24T01:21:11.303Z,65.40
2018-08-24T01:21:44.850Z,65.90
2018-08-24T01:22:18.406Z,65.80
2018-08-24T01:22:51.899Z,65.50
2018-08-24T01:23:26.583Z,65.60
2018-08-24T01:24:00.141Z,65.60
2018-08-24T01:24:33.679Z,66.30
2018-08-24T01:25:07.188Z,66.40
2018-08-24T01:25:40.825Z,66.60
2018-08-24T01:26:18.604Z,66.30
2018-08-24T01:26:57.359Z,66.20
2018-08-24T01:27:30.841Z,66.50
2018-08-24T01:28:04.437Z,67.30
2018-08-24T01:28:37.913Z,67.70
2018-08-24T01:29:11.408Z,67.80
2018-08-24T01:29:44.899Z,67.70
2018-08-24T01:30:18.521Z,67.30
2018-08-24T01:30:52.208Z,66.90
2018-08-24T01:31:26.097Z,66.30
2018-08-24T01:31:59.680Z,66.00
2018-08-24T01:32:33.205Z,65.60
2018-08-24T01:33:07.314Z,65.30
2018-08-24T01:33:40.815Z,65.60
2018-08-24T01:34:14.325Z,65.90
2018-08-24T01:34:47.922Z,66.00
2018-08-24T01:35:21.648Z,66.20
2018-08-24T01:35:55.788Z,66.70
2018-08-24T01:36:29.293Z,66.80
2018-08-24T01:37:04.385Z,66.20
2018-08-24T01:37:37.898Z,65.80
2018-08-24T01:38:11.796Z,65.80
2018-08-24T01:38:45.859Z,66.20
2018-08-24T01:39:19.316Z,66.30
2018-08-24T01:39:52.870Z,66.10
2018-08-24T01:40:26.428Z,65.90
2018-08-24T01:40:59.918Z,66.30
2018-08-24T01:41:33.350Z,66.40
2018-08-24T01:42:06.938Z,66.90
2018-08-24T01:42:40.508Z,67.50
2018-08-24T01:43:13.978Z,67.20
2018-08-24T01:43:47.421Z,67.10
2018-08-24T01:44:20.982Z,66.90
2018-08-24T01:44:54.550Z,67.00
2018-08-24T01:45:28.014Z,67.60
2018-08-24T01:46:06.752Z,67.00
2018-08-24T01:46:40.239Z,66.50
2018-08-24T01:47:13.820Z,66.30
2018-08-24T01:47:47.788Z,66.40
2018-08-24T01:48:21.279Z,66.10
2018-08-24T01:48:54.799Z,65.60
2018-08-24T01:49:28.388Z,65.70
2018-08-24T01:50:01.840Z,65.90
2018-08-24T01:50:35.313Z,65.60
2018-08-24T01:51:08.840Z,65.70
2018-08-24T01:51:42.359Z,65.90
2018-08-24T01:52:15.823Z,65.80
2018-08-24T01:52:49.765Z,65.60
2018-08-24T01:53:23.304Z,65.60
2018-08-24T01:53:57.446Z,65.70
2018-08-24T01:54:31.585Z,65.70
2018-08-24T01:55:05.242Z,65.60
2018-08-24T01:55:38.708Z,65.20
2018-08-24T01:56:12.412Z,64.60
2018-08-24T01:56:46.238Z,65.00
2018-08-24T01:57:20.008Z,65.40
2018-08-24T01:57:53.672Z,65.70
2018-08-24T01:58:27.142Z,65.70
2018-08-24T01:59:00.723Z,65.80
2018-08-24T01:59:34.234Z,65.70
2018-08-24T02:00:08.343Z,65.50
2018-08-24T02:00:41.948Z,65.30
2018-08-24T02:01:15.442Z,65.30
2018-08-24T02:01:48.965Z,65.00
2018-08-24T02:02:22.462Z,65.00
2018-08-24T02:02:55.953Z,64.60
2018-08-24T02:03:29.486Z,65.80
2018-08-24T02:04:03.025Z,64.70
2018-08-24T02:04:36.472Z,64.30
2018-08-24T02:05:09.965Z,64.20
2018-08-24T02:05:43.809Z,64.50
2018-08-24T02:06:17.333Z,64.50
2018-08-24T02:06:50.988Z,64.50
2018-08-24T02:07:24.592Z,64.60
2018-08-24T02:07:58.149Z,64.40
2018-08-24T02:08:31.692Z,64.30
2018-08-24T02:09:09.511Z,64.10
2018-08-24T02:09:43.080Z,63.90
2018-08-24T02:10:21.755Z,63.20
2018-08-24T02:10:55.911Z,63.10
2018-08-24T02:11:32.363Z,62.80
2018-08-24T02:12:10.119Z,62.60
2018-08-24T02:12:48.827Z,62.90
2018-08-24T02:13:27.725Z,63.20
2018-08-24T02:14:06.514Z,63.00
2018-08-24T02:14:41.127Z,62.80
2018-08-24T02:15:14.600Z,62.50
2018-08-24T02:15:48.740Z,63.00
2018-08-24T02:16:22.248Z,63.40
2018-08-24T02:16:56.681Z,63.10
2018-08-24T02:17:35.502Z,63.10
2018-08-24T02:18:14.388Z,63.50
2018-08-24T02:18:53.113Z,63.80
2018-08-24T02:19:32.016Z,63.40
2018-08-24T02:20:10.989Z,63.50
2018-08-24T02:20:49.743Z,63.40
2018-08-24T02:21:29.116Z,63.00
2018-08-24T02:22:07.830Z,63.00
2018-08-24T02:22:41.618Z,63.20
2018-08-24T02:23:15.356Z,63.40
2018-08-24T02:23:48.909Z,63.70
2018-08-24T02:24:22.428Z,63.50
2018-08-24T02:24:55.924Z,64.40
2018-08-24T02:25:29.448Z,63.50
2018-08-24T02:26:02.930Z,63.40
2018-08-24T02:26:36.563Z,63.60
2018-08-24T02:27:10.069Z,63.70
2018-08-24T02:27:43.576Z,63.60
2018-08-24T02:28:17.224Z,63.20
2018-08-24T02:28:51.460Z,63.00
2018-08-24T02:29:25.002Z,62.40
2018-08-24T02:29:58.632Z,62.50
2018-08-24T02:30:32.096Z,62.90
2018-08-24T02:31:05.710Z,63.00
2018-08-24T02:31:44.636Z,63.00
2018-08-24T02:32:18.140Z,63.00
2018-08-24T02:32:51.630Z,63.30
2018-08-24T02:33:25.210Z,63.30
2018-08-24T02:33:58.729Z,63.60
2018-08-24T02:34:32.280Z,63.60
2018-08-24T02:35:06.544Z,62.90
2018-08-24T02:35:40.072Z,62.50
2018-08-24T02:36:13.628Z,62.70
2018-08-24T02:36:47.110Z,63.00
2018-08-24T02:37:21.266Z,63.20
2018-08-24T02:37:54.764Z,63.10
2018-08-24T02:38:29.579Z,63.30
2018-08-24T02:39:03.571Z,63.20
2018-08-24T02:39:37.125Z,63.10
2018-08-24T02:40:10.656Z,63.30
2018-08-24T02:40:44.125Z,63.60
2018-08-24T02:41:17.672Z,63.70
2018-08-24T02:41:51.194Z,63.40
2018-08-24T02:42:24.668Z,63.60
2018-08-24T02:42:58.202Z,63.80
2018-08-24T02:43:31.697Z,63.70
2018-08-24T02:44:05.297Z,63.50
2018-08-24T02:44:38.754Z,63.70
2018-08-24T02:45:12.352Z,63.50
2018-08-24T02:45:46.448Z,63.30
2018-08-24T02:46:19.911Z,63.40
2018-08-24T02:46:53.442Z,63.40
2018-08-24T02:47:27.040Z,63.40
2018-08-24T02:48:00.720Z,63.40
2018-08-24T02:48:34.358Z,63.50
2018-08-24T02:49:08.377Z,63.70
2018-08-24T02:49:42.451Z,63.50
2018-08-24T02:50:15.908Z,63.40
2018-08-24T02:50:49.428Z,64.00
2018-08-24T02:51:22.943Z,64.20
2018-08-24T02:51:56.427Z,64.00
2018-08-24T02:52:29.919Z,63.90
2018-08-24T02:53:03.383Z,64.00
2018-08-24T02:53:36.843Z,64.00
2018-08-24T02:54:10.371Z,64.00
2018-08-24T02:54:43.834Z,64.20
2018-08-24T02:55:17.388Z,64.00
2018-08-24T02:55:50.864Z,63.80
2018-08-24T02:56:24.389Z,64.50
2018-08-24T02:56:57.915Z,63.80
2018-08-24T02:57:32.182Z,63.90
2018-08-24T02:58:05.709Z,64.00
2018-08-24T02:58:39.232Z,64.10
2018-08-24T02:59:12.740Z,64.20
2018-08-24T02:59:46.484Z,64.40
2018-08-24T03:00:20.691Z,64.20
2018-08-24T03:00:54.266Z,64.30
2018-08-24T03:01:27.860Z,64.40
2018-08-24T03:02:01.304Z,64.40
2018-08-24T03:02:34.988Z,64.40
2018-08-24T03:03:08.511Z,64.40
2018-08-24T03:03:41.956Z,64.80
2018-08-24T03:04:15.386Z,64.30
2018-08-24T03:04:48.893Z,64.40
2018-08-24T03:05:22.982Z,64.60
2018-08-24T03:05:56.326Z,64.80
2018-08-24T03:06:29.964Z,65.00
2018-08-24T03:07:03.519Z,64.90
2018-08-24T03:07:36.947Z,64.90
2018-08-24T03:08:11.730Z,64.90
2018-08-24T03:08:45.294Z,65.00
2018-08-24T03:09:19.359Z,65.00
2018-08-24T03:09:52.853Z,64.80
2018-08-24T03:10:26.328Z,64.90
2018-08-24T03:10:59.879Z,64.90
2018-08-24T03:11:33.770Z,64.70
2018-08-24T03:12:07.389Z,64.30
2018-08-24T03:12:41.397Z,64.60
2018-08-24T03:13:16.083Z,64.90
2018-08-24T03:13:49.607Z,64.70
2018-08-24T03:14:23.127Z,64.50
2018-08-24T03:14:56.614Z,64.70
2018-08-24T03:15:30.475Z,64.70
2018-08-24T03:16:04.132Z,64.50
2018-08-24T03:16:37.540Z,64.50
2018-08-24T03:17:16.392Z,64.70
2018-08-24T03:17:54.571Z,64.90
2018-08-24T03:18:28.096Z,65.60
2018-08-24T03:19:01.552Z,64.80
2018-08-24T03:19:35.568Z,64.10
2018-08-24T03:20:09.098Z,64.20
2018-08-24T03:20:44.121Z,64.60
2018-08-24T03:21:18.246Z,64.40
2018-08-24T03:21:51.744Z,64.60
2018-08-24T03:22:25.967Z,64.60
2018-08-24T03:22:59.543Z,64.80
2018-08-24T03:23:33.091Z,64.80
2018-08-24T03:24:06.648Z,64.40
2018-08-24T03:24:40.178Z,64.40
2018-08-24T03:25:13.784Z,64.20
2018-08-24T03:25:47.784Z,64.30
2018-08-24T03:26:21.235Z,64.40
2018-08-24T03:26:54.739Z,63.60
2018-08-24T03:27:28.274Z,63.50
2018-08-24T03:28:01.846Z,63.90
2018-08-24T03:28:35.353Z,64.20
2018-08-24T03:29:08.841Z,64.20
2018-08-24T03:29:42.301Z,64.20
2018-08-24T03:30:15.816Z,64.20
2018-08-24T03:30:49.265Z,64.00
2018-08-24T03:31:22.705Z,63.80
2018-08-24T03:31:56.211Z,63.50
2018-08-24T03:32:29.761Z,63.40
2018-08-24T03:33:03.261Z,63.50
2018-08-24T03:33:36.779Z,63.80
2018-08-24T03:34:10.303Z,63.10
2018-08-24T03:34:44.147Z,63.30
2018-08-24T03:35:17.641Z,63.20
2018-08-24T03:35:51.200Z,63.20
2018-08-24T03:36:24.724Z,62.90
2018-08-24T03:36:58.380Z,63.00
2018-08-24T03:37:31.868Z,62.70
2018-08-24T03:38:06.181Z,62.50
2018-08-24T03:38:39.660Z,62.40
2018-08-24T03:39:13.270Z,62.90
2018-08-24T03:39:46.751Z,63.10
2018-08-24T03:40:20.208Z,63.00
2018-08-24T03:40:53.768Z,62.40
2018-08-24T03:41:27.245Z,62.50
2018-08-24T03:42:01.508Z,63.50
2018-08-24T03:42:35.008Z,63.00
2018-08-24T03:43:08.804Z,63.10
2018-08-24T03:43:42.779Z,63.20
2018-08-24T03:44:16.292Z,63.00
2018-08-24T03:44:49.744Z,63.10
2018-08-24T03:45:23.265Z,62.90
2018-08-24T03:45:57.157Z,62.90
2018-08-24T03:46:30.634Z,62.40
2018-08-24T03:47:04.200Z,62.60
2018-08-24T03:47:37.734Z,62.90
2018-08-24T03:48:11.209Z,63.00
2018-08-24T03:48:44.778Z,63.20
2018-08-24T03:49:18.241Z,63.40
2018-08-24T03:49:51.732Z,63.40
2018-08-24T03:50:25.786Z,63.20
2018-08-24T03:50:59.346Z,62.80
2018-08-24T03:51:32.971Z,63.00
2018-08-24T03:52:06.397Z,63.30
2018-08-24T03:52:39.863Z,63.20
2018-08-24T03:53:13.530Z,63.10
2018-08-24T03:53:47.668Z,63.10
2018-08-24T03:54:22.305Z,63.00
2018-08-24T03:54:55.958Z,62.90
2018-08-24T03:55:33.673Z,62.70
2018-08-24T03:56:07.196Z,62.80
2018-08-24T03:56:40.672Z,62.90
2018-08-24T03:57:14.206Z,63.20
2018-08-24T03:57:47.711Z,63.40
2018-08-24T03:58:21.235Z,63.40
2018-08-24T03:58:54.686Z,63.40
2018-08-24T03:59:28.620Z,63.40
2018-08-24T04:00:02.131Z,63.40
2018-08-24T04:00:36.600Z,63.20
2018-08-24T04:01:10.047Z,62.90
2018-08-24T04:01:43.535Z,63.00
2018-08-24T04:02:17.014Z,62.60
2018-08-24T04:02:50.967Z,62.50
2018-08-24T04:03:24.444Z,62.60
2018-08-24T04:03:57.902Z,62.50
2018-08-24T04:04:31.408Z,62.10
2018-08-24T04:05:04.995Z,62.30
2018-08-24T04:05:38.613Z,62.30
2018-08-24T04:06:12.124Z,62.50
2018-08-24T04:06:45.773Z,62.60
2018-08-24T04:07:19.241Z,62.60
2018-08-24T04:07:52.788Z,62.00
2018-08-24T04:08:26.930Z,62.10
2018-08-24T04:09:00.426Z,62.10
2018-08-24T04:09:34.569Z,61.30
2018-08-24T04:10:08.081Z,62.30
2018-08-24T04:10:41.638Z,62.30
2018-08-24T04:11:15.118Z,62.10
2018-08-24T04:11:48.609Z,62.30
2018-08-24T04:12:22.113Z,62.00
2018-08-24T04:12:56.608Z,61.90
2018-08-24T04:13:30.077Z,62.00
2018-08-24T04:14:03.535Z,62.00
2018-08-24T04:14:37.307Z,61.90
2018-08-24T04:15:10.819Z,61.90
2018-08-24T04:15:44.370Z,61.90
2018-08-24T04:16:17.865Z,61.80
2018-08-24T04:16:56.744Z,61.90
2018-08-24T04:17:35.491Z,62.20
2018-08-24T04:18:08.988Z,61.90
2018-08-24T04:18:42.439Z,62.10
2018-08-24T04:19:23.377Z,62.10
2018-08-24T04:19:57.331Z,62.10
2018-08-24T04:20:31.468Z,62.00
2018-08-24T04:21:05.351Z,61.80
2018-08-24T04:21:38.833Z,61.90
2018-08-24T04:22:12.316Z,61.60
2018-08-24T04:22:45.872Z,61.80
2018-08-24T04:23:19.371Z,62.00
2018-08-24T04:23:52.890Z,62.00
2018-08-24T04:24:26.326Z,61.90
2018-08-24T04:24:59.945Z,61.90
2018-08-24T04:25:33.421Z,62.50
2018-08-24T04:26:07.064Z,62.20
2018-08-24T04:26:41.738Z,62.20
2018-08-24T04:27:15.214Z,62.30
2018-08-24T04:27:48.668Z,61.90
2018-08-24T04:28:22.210Z,61.80
2018-08-24T04:28:55.705Z,62.10
2018-08-24T04:29:29.182Z,62.30
2018-08-24T04:30:02.765Z,62.40
2018-08-24T04:30:36.867Z,62.50
2018-08-24T04:31:10.342Z,62.30
2018-08-24T04:31:43.851Z,62.30
2018-08-24T04:32:17.401Z,62.10
2018-08-24T04:32:51.652Z,62.10
2018-08-24T04:33:25.119Z,62.20
2018-08-24T04:33:58.624Z,62.10
2018-08-24T04:34:32.170Z,62.00
2018-08-24T04:35:05.848Z,62.00
2018-08-24T04:35:39.417Z,62.30
2018-08-24T04:36:13.723Z,62.40
2018-08-24T04:36:47.279Z,62.40
2018-08-24T04:37:20.869Z,62.00
2018-08-24T04:37:54.416Z,62.00
2018-08-24T04:38:27.956Z,61.80
2018-08-24T04:39:01.587Z,61.90
2018-08-24T04:39:35.034Z,61.80
2018-08-24T04:40:09.040Z,61.70
2018-08-24T04:40:43.111Z,61.90
2018-08-24T04:41:16.700Z,62.10
2018-08-24T04:41:50.216Z,62.10
2018-08-24T04:42:23.770Z,62.10
2018-08-24T04:42:57.236Z,62.30
2018-08-24T04:43:30.718Z,62.10
2018-08-24T04:44:04.371Z,62.00
2018-08-24T04:44:37.808Z,62.30
2018-08-24T04:45:11.274Z,62.40
2018-08-24T04:45:44.824Z,62.30
2018-08-24T04:46:18.302Z,62.10
2018-08-24T04:46:52.420Z,62.20
2018-08-24T04:47:25.928Z,62.40
2018-08-24T04:47:59.434Z,62.60
2018-08-24T04:48:33.044Z,62.30
2018-08-24T04:49:06.905Z,62.00
2018-08-24T04:49:40.375Z,62.10
2018-08-24T04:50:13.840Z,62.20
2018-08-24T04:50:47.348Z,62.20
2018-08-24T04:51:21.647Z,62.20
2018-08-24T04:51:55.159Z,62.40
2018-08-24T04:52:28.715Z,62.50
2018-08-24T04:53:02.228Z,62.40
2018-08-24T04:53:35.796Z,62.40
2018-08-24T04:54:09.345Z,62.20
2018-08-24T04:54:42.937Z,62.10
2018-08-24T04:55:16.937Z,62.50
2018-08-24T04:55:50.523Z,62.70
2018-08-24T04:56:24.159Z,62.70
2018-08-24T04:56:57.954Z,62.80
2018-08-24T04:57:31.455Z,63.00
2018-08-24T04:58:05.267Z,62.70
2018-08-24T04:58:38.721Z,63.00
2018-08-24T04:59:12.211Z,63.00
2018-08-24T04:59:46.290Z,63.10
2018-08-24T05:00:19.987Z,63.10
2018-08-24T05:00:53.460Z,63.00
2018-08-24T05:01:27.054Z,63.00
2018-08-24T05:02:00.486Z,62.80
2018-08-24T05:02:34.704Z,62.70
2018-08-24T05:03:08.251Z,62.60
2018-08-24T05:03:42.286Z,62.70
2018-08-24T05:04:15.788Z,62.40
2018-08-24T05:04:49.314Z,62.40
2018-08-24T05:05:22.863Z,62.30
2018-08-24T05:05:56.981Z,62.50
2018-08-24T05:06:30.441Z,62.40
2018-08-24T05:07:03.915Z,62.30
2018-08-24T05:07:37.418Z,62.50
2018-08-24T05:08:10.845Z,62.70
2018-08-24T05:08:44.520Z,62.80
2018-08-24T05:09:18.275Z,62.90
2018-08-24T05:09:51.762Z,63.00
2018-08-24T05:10:25.364Z,62.90
2018-08-24T05:10:58.952Z,63.10
2018-08-24T05:11:32.465Z,63.40
2018-08-24T05:12:06.531Z,63.40
2018-08-24T05:12:39.989Z,63.10
2018-08-24T05:13:13.498Z,63.00
2018-08-24T05:13:46.968Z,62.90
2018-08-24T05:14:20.516Z,63.10
2018-08-24T05:14:54.052Z,63.10
2018-08-24T05:15:27.592Z,63.00
2018-08-24T05:16:02.155Z,62.80
2018-08-24T05:16:36.355Z,62.80
2018-08-24T05:17:10.461Z,62.80
2018-08-24T05:17:44.283Z,62.60
2018-08-24T05:18:17.838Z,62.70
2018-08-24T05:18:52.088Z,62.60
2018-08-24T05:19:26.229Z,62.70
2018-08-24T05:19:59.764Z,62.40
2018-08-24T05:20:33.267Z,62.30
2018-08-24T05:21:06.713Z,62.60
2018-08-24T05:21:40.276Z,62.60
2018-08-24T05:22:14.410Z,62.40
2018-08-24T05:22:47.933Z,62.60
2018-08-24T05:23:22.306Z,62.70
2018-08-24T05:23:55.758Z,63.00
2018-08-24T05:24:29.234Z,63.00
2018-08-24T05:25:02.853Z,63.00
2018-08-24T05:25:36.388Z,62.60
2018-08-24T05:26:09.871Z,62.70
2018-08-24T05:26:43.429Z,62.90
2018-08-24T05:27:16.927Z,63.10
2018-08-24T05:27:50.381Z,63.00
2018-08-24T05:28:23.843Z,62.90
2018-08-24T05:28:57.344Z,63.10
2018-08-24T05:29:31.481Z,63.20
2018-08-24T05:30:06.230Z,63.10
2018-08-24T05:30:40.521Z,62.80
2018-08-24T05:31:14.186Z,62.60
2018-08-24T05:31:48.225Z,62.50
2018-08-24T05:32:22.048Z,62.50
2018-08-24T05:32:55.515Z,62.60
2018-08-24T05:33:28.995Z,62.60
2018-08-24T05:34:02.539Z,62.60
2018-08-24T05:34:36.125Z,62.60
2018-08-24T05:35:09.700Z,62.60
2018-08-24T05:35:43.321Z,62.40
2018-08-24T05:36:16.770Z,62.50
2018-08-24T05:36:50.687Z,62.10
2018-08-24T05:37:24.246Z,62.00
2018-08-24T05:37:58.047Z,62.30
2018-08-24T05:38:31.521Z,62.50
2018-08-24T05:39:07.251Z,62.70
2018-08-24T05:39:40.752Z,62.80
2018-08-24T05:40:14.224Z,62.50
2018-08-24T05:40:47.790Z,62.40
2018-08-24T05:41:21.272Z,62.40
2018-08-24T05:41:54.795Z,62.40
2018-08-24T05:42:28.249Z,62.20
2018-08-24T05:43:02.054Z,62.50
2018-08-24T05:43:35.541Z,62.50
2018-08-24T05:44:09.014Z,62.40
2018-08-24T05:44:42.436Z,62.30
2018-08-24T05:45:15.880Z,62.30
2018-08-24T05:45:49.365Z,62.30
2018-08-24T05:46:22.912Z,62.30
2018-08-24T05:46:56.509Z,62.20
2018-08-24T05:47:30.042Z,62.20
2018-08-24T05:48:03.531Z,62.30
2018-08-24T05:48:37.050Z,62.40
2018-08-24T05:49:10.600Z,62.30
2018-08-24T05:49:44.186Z,62.30
2018-08-24T05:50:17.663Z,62.00
2018-08-24T05:50:51.135Z,61.90
2018-08-24T05:51:24.660Z,62.20
2018-08-24T05:51:58.202Z,62.30
2018-08-24T05:52:31.773Z,62.40
2018-08-24T05:53:05.276Z,62.30
2018-08-24T05:53:38.745Z,62.20
2018-08-24T05:54:12.956Z,62.30
2018-08-24T05:54:46.456Z,62.20
2018-08-24T05:55:20.076Z,62.20
2018-08-24T05:55:53.575Z,62.40
2018-08-24T05:56:27.689Z,62.40
2018-08-24T05:57:01.174Z,62.50
2018-08-24T05:57:34.656Z,62.20
2018-08-24T05:58:10.007Z,62.30
2018-08-24T05:58:43.615Z,62.30
2018-08-24T05:59:17.180Z,62.20
2018-08-24T05:59:50.712Z,62.20
2018-08-24T06:00:29.444Z,62.90
2018-08-24T06:01:02.925Z,62.70
2018-08-24T06:01:36.937Z,61.70
2018-08-24T06:02:10.449Z,61.70
2018-08-24T06:02:43.987Z,61.80
2018-08-24T06:03:17.500Z,61.30
2018-08-24T06:03:50.978Z,62.00
2018-08-24T06:04:24.484Z,62.10
2018-08-24T06:04:58.612Z,61.90
2018-08-24T06:05:32.275Z,62.00
2018-08-24T06:06:05.815Z,62.00
2018-08-24T06:06:39.255Z,62.60
2018-08-24T06:07:12.722Z,62.00
2018-08-24T06:07:46.167Z,62.10
2018-08-24T06:08:20.243Z,61.90
2018-08-24T06:08:59.035Z,61.70
2018-08-24T06:09:32.568Z,61.70
2018-08-24T06:10:06.124Z,61.60
2018-08-24T06:10:39.654Z,61.60
2018-08-24T06:11:13.258Z,61.50
2018-08-24T06:11:46.812Z,61.60
2018-08-24T06:12:21.014Z,61.30
2018-08-24T06:12:55.189Z,61.40
2018-08-24T06:13:28.713Z,61.50
2018-08-24T06:14:02.241Z,61.20
2018-08-24T06:14:36.420Z,61.10
2018-08-24T06:15:10.807Z,61.40
2018-08-24T06:15:46.356Z,61.40
2018-08-24T06:16:20.423Z,61.30
2018-08-24T06:16:59.252Z,61.30
2018-08-24T06:17:38.230Z,61.40
2018-08-24T06:18:11.765Z,61.70
2018-08-24T06:18:45.436Z,61.80
2018-08-24T06:19:19.846Z,61.80
2018-08-24T06:19:53.382Z,61.90
2018-08-24T06:20:26.891Z,61.70
2018-08-24T06:21:01.126Z,62.00
2018-08-24T06:21:34.877Z,61.80
2018-08-24T06:22:08.957Z,61.60
2018-08-24T06:22:42.565Z,61.70
2018-08-24T06:23:16.871Z,62.00
2018-08-24T06:23:50.572Z,62.00
2018-08-24T06:24:24.486Z,61.80
2018-08-24T06:24:58.465Z,61.50
2018-08-24T06:25:32.210Z,61.50
2018-08-24T06:26:06.148Z,61.60
2018-08-24T06:26:40.767Z,61.50
2018-08-24T06:27:14.851Z,61.40
2018-08-24T06:27:49.919Z,61.60
2018-08-24T06:28:23.511Z,61.80
2018-08-24T06:28:57.094Z,61.80
2018-08-24T06:29:31.437Z,61.40
2018-08-24T06:30:05.859Z,61.50
2018-08-24T06:30:39.556Z,61.60
2018-08-24T06:31:13.110Z,61.40
2018-08-24T06:31:46.688Z,61.40
2018-08-24T06:32:20.172Z,61.20
2018-08-24T06:32:54.263Z,61.10
2018-08-24T06:33:27.804Z,61.20
2018-08-24T06:34:02.497Z,61.10
2018-08-24T06:34:36.063Z,61.30
2018-08-24T06:35:10.937Z,61.30
2018-08-24T06:35:45.992Z,61.30
2018-08-24T06:36:21.050Z,61.10
2018-08-24T06:36:54.862Z,61.00
2018-08-24T06:37:28.361Z,61.10
2018-08-24T06:38:02.109Z,61.10
2018-08-24T06:38:35.662Z,61.20
2018-08-24T06:39:11.757Z,61.40
2018-08-24T06:39:45.970Z,61.10
2018-08-24T06:40:19.530Z,61.10
2018-08-24T06:40:53.631Z,61.00
2018-08-24T06:41:27.160Z,60.90
2018-08-24T06:42:00.723Z,60.80
2018-08-24T06:42:34.927Z,60.90
2018-08-24T06:43:09.031Z,60.80
2018-08-24T06:43:42.552Z,61.10
2018-08-24T06:44:16.056Z,60.30
2018-08-24T06:44:50.968Z,60.80
2018-08-24T06:45:24.479Z,61.10
2018-08-24T06:45:58.593Z,61.00
2018-08-24T06:46:32.055Z,61.50
2018-08-24T06:47:05.625Z,61.20
2018-08-24T06:47:39.188Z,61.80
2018-08-24T06:48:13.355Z,61.10
2018-08-24T06:48:46.937Z,61.20
2018-08-24T06:49:20.500Z,61.00
2018-08-24T06:49:54.113Z,60.80
2018-08-24T06:50:27.626Z,60.90
2018-08-24T06:51:01.855Z,61.10
2018-08-24T06:51:35.964Z,61.40
2018-08-24T06:52:09.592Z,61.30
2018-08-24T06:52:43.124Z,61.20
2018-08-24T06:53:16.744Z,61.10
2018-08-24T06:53:50.498Z,61.20
2018-08-24T06:54:25.431Z,61.00
2018-08-24T06:54:59.032Z,60.80
2018-08-24T06:55:41.219Z,60.80
2018-08-24T06:56:15.813Z,61.00
2018-08-24T06:56:49.661Z,61.00
2018-08-24T06:57:23.484Z,61.20
2018-08-24T06:57:57.569Z,61.00
2018-08-24T06:58:32.062Z,61.00
2018-08-24T06:59:06.413Z,61.10
2018-08-24T06:59:40.942Z,61.10
2018-08-24T07:00:14.575Z,61.10
2018-08-24T07:00:48.497Z,60.90
2018-08-24T07:01:22.102Z,61.10
2018-08-24T07:01:57.832Z,61.10
2018-08-24T07:02:31.472Z,61.30
2018-08-24T07:03:05.557Z,61.30
2018-08-24T07:03:39.187Z,61.20
2018-08-24T07:04:13.434Z,61.30
2018-08-24T07:04:47.558Z,61.20
2018-08-24T07:05:21.152Z,61.10
2018-08-24T07:05:54.917Z,61.70
2018-08-24T07:06:28.417Z,61.10
2018-08-24T07:07:02.036Z,61.20
2018-08-24T07:07:35.562Z,60.90
2018-08-24T07:08:09.091Z,60.80
2018-08-24T07:08:42.846Z,60.50
2018-08-24T07:09:16.333Z,60.60
2018-08-24T07:09:49.874Z,60.70
2018-08-24T07:10:23.778Z,60.60
2018-08-24T07:10:57.296Z,60.50
2018-08-24T07:11:30.762Z,60.40
2018-08-24T07:12:04.252Z,60.50
2018-08-24T07:12:37.801Z,60.40
2018-08-24T07:13:11.813Z,60.40
2018-08-24T07:13:48.222Z,60.40
2018-08-24T07:14:21.783Z,60.00
2018-08-24T07:14:56.173Z,60.00
2018-08-24T07:15:29.676Z,60.00
2018-08-24T07:16:03.202Z,60.20
2018-08-24T07:16:37.419Z,60.00
2018-08-24T07:17:10.887Z,60.10
2018-08-24T07:17:49.513Z,60.10